Time;durP1;ratioP1;P1;durP2;ratioP2;P2;SDS_P1;SDS_P2;PMS_P1;PMS_P2;Temp;Humidity;BMP_temperature;BMP_pressure;BME280_temperature;BME280_humidity;BME280_pressure;Samples;Min_cycle;Max_cycle;Signal;HPM_P1;HPM_P2
2023/12/27 00:01:44;;;;;;;10.88;1.00;;;;;;;;;;4990840;28;20046;-69
2023/12/27 00:04:11;;;;;;;6.65;0.88;;;;;;;;;;4989718;28;20072;-69
2023/12/27 00:06:38;;;;;;;6.38;1.10;;;;;;;;;;4991018;28;20055;-69
2023/12/27 00:09:06;;;;;;;5.88;1.00;;;;;;;;;;4990434;28;20417;-69
2023/12/27 00:11:33;;;;;;;6.40;1.10;;;;;;;;;;4990681;28;20058;-69
2023/12/27 00:14:02;;;;;;;4.53;1.08;;;;;;;;;;4990257;28;20051;-69
2023/12/27 00:16:30;;;;;;;12.48;2.40;;;;;;;;;;4991639;28;20046;-69
2023/12/27 00:18:57;;;;;;;8.15;1.00;;;;;;;;;;4988048;28;20105;-69
2023/12/27 00:21:24;;;;;;;4.55;0.95;;;;;;;;;;4991059;28;20051;-69
2023/12/27 00:23:52;;;;;;;11.00;0.95;;;;;;;;;;4987425;28;20055;-69
2023/12/27 00:26:19;;;;;;;12.82;1.40;;;;;;;;;;4987659;28;20489;-70
2023/12/27 00:28:46;;;;;;;6.32;1.30;;;;;;;;;;4990278;28;20162;-69
2023/12/27 00:31:15;;;;;;;9.07;1.17;;;;;;;;;;4990565;28;20061;-69
2023/12/27 00:33:42;;;;;;;5.18;0.88;;;;;;;;;;4987464;28;20052;-69
2023/12/27 00:36:10;;;;;;;12.93;1.05;;;;;;;;;;4991316;28;20500;-69
2023/12/27 00:38:37;;;;;;;8.90;1.33;;;;;;;;;;4987554;28;20060;-69
2023/12/27 00:41:05;;;;;;;13.70;1.08;;;;;;;;;;4986950;28;20046;-69
2023/12/27 00:43:32;;;;;;;8.40;0.90;;;;;;;;;;4973330;28;20050;-69
2023/12/27 00:45:59;;;;;;;4.32;0.75;;;;;;;;;;4989225;28;20056;-69
2023/12/27 00:48:28;;;;;;;14.20;1.30;;;;;;;;;;4973170;28;20050;-69
2023/12/27 00:50:57;;;;;;;6.15;1.08;;;;;;;;;;4990330;28;20050;-69
2023/12/27 00:53:24;;;;;;;8.90;1.00;;;;;;;;;;4986275;28;20490;-69
2023/12/27 00:55:51;;;;;;;7.50;0.95;;;;;;;;;;4986754;28;20061;-69
2023/12/27 00:58:19;;;;;;;6.10;1.05;;;;;;;;;;4980592;28;20053;-69
2023/12/27 01:00:46;;;;;;;9.20;0.98;;;;;;;;;;4987715;28;20060;-69
2023/12/27 01:03:13;;;;;;;3.15;0.57;;;;;;;;;;4967900;28;20081;-69
2023/12/27 01:05:42;;;;;;;7.13;0.90;;;;;;;;;;4989387;28;20054;-69
2023/12/27 01:08:09;;;;;;;6.22;0.80;;;;;;;;;;4966510;28;20499;-69
2023/12/27 01:10:36;;;;;;;6.80;1.08;;;;;;;;;;4989507;28;20065;-69
2023/12/27 01:13:04;;;;;;;7.03;0.98;;;;;;;;;;4984065;28;20055;-69
2023/12/27 01:15:31;;;;;;;12.15;1.10;;;;;;;;;;4984948;28;20069;-69
2023/12/27 01:17:58;;;;;;;3.80;0.73;;;;;;;;;;4988826;28;20038;-69
2023/12/27 01:20:25;;;;;;;7.65;1.30;;;;;;;;;;4969150;28;20054;-69
2023/12/27 01:22:54;;;;;;;5.25;1.25;;;;;;;;;;4988891;28;20484;-65
2023/12/27 01:25:21;;;;;;;8.93;0.90;;;;;;;;;;4989352;28;20152;-65
2023/12/27 01:27:48;;;;;;;18.63;1.02;;;;;;;;;;4985705;28;20393;-66
2023/12/27 01:30:16;;;;;;;5.63;0.60;;;;;;;;;;4972400;28;20050;-67
2023/12/27 01:32:43;;;;;;;14.27;1.05;;;;;;;;;;4988702;28;20043;-69
2023/12/27 01:35:10;;;;;;;3.35;0.60;;;;;;;;;;4987256;28;20476;-68
2023/12/27 01:37:37;;;;;;;8.40;1.02;;;;;;;;;;4985892;28;20137;-66
2023/12/27 01:40:07;;;;;;;8.63;1.15;;;;;;;;;;4966379;28;20523;-65
2023/12/27 01:42:34;;;;;;;5.15;0.80;;;;;;;;;;4990156;28;20050;-66
2023/12/27 01:45:02;;;;;;;10.75;1.33;;;;;;;;;;4979901;28;20054;-66
2023/12/27 01:47:29;;;;;;;10.80;1.10;;;;;;;;;;4985489;28;20046;-65
2023/12/27 01:49:56;;;;;;;5.00;0.95;;;;;;;;;;4986411;28;20055;-65
2023/12/27 01:52:23;;;;;;;5.03;0.70;;;;;;;;;;4989038;28;20057;-65
2023/12/27 01:54:51;;;;;;;4.88;0.90;;;;;;;;;;4989124;28;20397;-65
2023/12/27 01:57:20;;;;;;;6.93;0.90;;;;;;;;;;4989860;28;20490;-66
2023/12/27 01:59:47;;;;;;;5.30;0.90;;;;;;;;;;4987762;28;20046;-66
2023/12/27 02:02:14;;;;;;;4.57;0.90;;;;;;;;;;4989802;28;20046;-66
2023/12/27 02:04:42;;;;;;;12.25;1.00;;;;;;;;;;4985018;28;20053;-66
2023/12/27 02:07:09;;;;;;;3.40;0.70;;;;;;;;;;4987713;28;20525;-65
2023/12/27 02:09:37;;;;;;;9.05;1.58;;;;;;;;;;4986694;28;20054;-65
2023/12/27 02:12:04;;;;;;;4.97;0.93;;;;;;;;;;4987219;28;20050;-66
2023/12/27 02:14:33;;;;;;;5.70;1.33;;;;;;;;;;4989442;28;20046;-67
2023/12/27 02:17:00;;;;;;;4.63;1.08;;;;;;;;;;4988899;28;20057;-65
2023/12/27 02:19:28;;;;;;;6.40;0.70;;;;;;;;;;4989455;28;20046;-65
2023/12/27 02:21:56;;;;;;;3.70;1.30;;;;;;;;;;4985083;28;20050;-66
2023/12/27 02:24:23;;;;;;;4.18;1.15;;;;;;;;;;4987839;28;20073;-66
2023/12/27 02:26:52;;;;;;;5.93;1.10;;;;;;;;;;4986809;28;20049;-66
2023/12/27 02:29:19;;;;;;;10.60;1.67;;;;;;;;;;4959114;28;20053;-66
2023/12/27 02:31:47;;;;;;;14.80;1.58;;;;;;;;;;4984255;28;20050;-64
2023/12/27 02:34:14;;;;;;;4.70;1.30;;;;;;;;;;4986155;28;20054;-66
2023/12/27 02:36:41;;;;;;;10.57;1.50;;;;;;;;;;4986999;28;20046;-65
2023/12/27 02:39:09;;;;;;;7.72;1.20;;;;;;;;;;4979791;28;20043;-66
2023/12/27 02:41:36;;;;;;;7.85;1.27;;;;;;;;;;4986150;28;20042;-66
2023/12/27 02:44:05;;;;;;;9.73;1.52;;;;;;;;;;4986316;28;20046;-66
2023/12/27 02:46:33;;;;;;;14.27;1.73;;;;;;;;;;4987756;28;20564;-65
2023/12/27 02:49:01;;;;;;;8.15;1.30;;;;;;;;;;4987359;28;20489;-68
2023/12/27 02:51:28;;;;;;;5.70;1.30;;;;;;;;;;4985625;28;20066;-65
2023/12/27 02:53:55;;;;;;;5.95;1.92;;;;;;;;;;4976596;28;20140;-65
2023/12/27 02:56:22;;;;;;;9.77;1.25;;;;;;;;;;4982046;28;20065;-66
2023/12/27 02:58:50;;;;;;;5.07;1.70;;;;;;;;;;4986758;28;20066;-65
2023/12/27 03:01:18;;;;;;;5.95;1.10;;;;;;;;;;4984156;28;20042;-65
2023/12/27 03:03:45;;;;;;;8.18;1.40;;;;;;;;;;4986442;28;20054;-65
2023/12/27 03:06:13;;;;;;;7.05;1.85;;;;;;;;;;4988334;28;20062;-66
2023/12/27 03:08:40;;;;;;;7.70;1.52;;;;;;;;;;4986873;28;20138;-65
2023/12/27 03:11:07;;;;;;;7.03;1.60;;;;;;;;;;4983737;28;20058;-65
2023/12/27 03:13:34;;;;;;;9.25;1.77;;;;;;;;;;4987856;28;20050;-65
2023/12/27 03:16:05;;;;;;;9.20;1.55;;;;;;;;;;4985277;28;20343;-66
2023/12/27 03:18:32;;;;;;;7.47;1.60;;;;;;;;;;4988592;28;20109;-67
2023/12/27 03:21:00;;;;;;;11.65;1.80;;;;;;;;;;4983793;28;20065;-65
2023/12/27 03:23:27;;;;;;;5.60;2.28;;;;;;;;;;4983222;28;20081;-65
2023/12/27 03:25:55;;;;;;;10.27;1.80;;;;;;;;;;4986017;28;20046;-65
2023/12/27 03:28:22;;;;;;;5.38;1.38;;;;;;;;;;4983970;28;20046;-65
2023/12/27 03:30:49;;;;;;;8.35;1.75;;;;;;;;;;4988182;28;20061;-66
2023/12/27 03:33:17;;;;;;;8.15;2.45;;;;;;;;;;4982951;28;20082;-65
2023/12/27 03:35:45;;;;;;;5.68;1.50;;;;;;;;;;4982693;28;20506;-67
2023/12/27 03:38:12;;;;;;;4.28;1.20;;;;;;;;;;4982295;28;20050;-66
2023/12/27 03:40:40;;;;;;;9.43;1.55;;;;;;;;;;4991519;28;20050;-66
2023/12/27 03:43:07;;;;;;;8.82;2.28;;;;;;;;;;4989080;28;20060;-69
2023/12/27 03:45:35;;;;;;;7.47;1.70;;;;;;;;;;4992897;28;20058;-69
2023/12/27 03:48:02;;;;;;;10.50;1.80;;;;;;;;;;4991587;28;20501;-69
2023/12/27 03:50:30;;;;;;;10.13;2.10;;;;;;;;;;4989082;28;20046;-69
2023/12/27 03:52:58;;;;;;;13.10;2.03;;;;;;;;;;4991113;28;20043;-69
2023/12/27 03:55:26;;;;;;;6.40;1.63;;;;;;;;;;4988311;28;20050;-69
2023/12/27 03:57:53;;;;;;;8.30;1.90;;;;;;;;;;4988871;28;20054;-69
2023/12/27 04:00:21;;;;;;;6.78;1.73;;;;;;;;;;4991894;28;20054;-69
2023/12/27 04:02:48;;;;;;;8.18;1.70;;;;;;;;;;4966511;28;20174;-69
2023/12/27 04:05:15;;;;;;;6.60;2.20;;;;;;;;;;4986888;28;20070;-69
2023/12/27 04:07:43;;;;;;;5.53;2.08;;;;;;;;;;4989520;28;20058;-70
2023/12/27 04:10:11;;;;;;;13.77;1.95;;;;;;;;;;4991467;28;20050;-69
2023/12/27 04:12:39;;;;;;;7.93;1.65;;;;;;;;;;4984283;28;20054;-69
2023/12/27 04:15:07;;;;;;;11.20;1.77;;;;;;;;;;4991987;28;20054;-69
2023/12/27 04:17:34;;;;;;;9.07;1.75;;;;;;;;;;4991711;28;20058;-70
2023/12/27 04:20:01;;;;;;;7.25;1.65;;;;;;;;;;4989963;28;20046;-69
2023/12/27 04:22:29;;;;;;;9.60;1.70;;;;;;;;;;4991229;28;20058;-69
2023/12/27 04:24:56;;;;;;;6.55;1.65;;;;;;;;;;4990777;28;20050;-69
2023/12/27 04:27:24;;;;;;;8.73;2.00;;;;;;;;;;4990949;28;20057;-69
2023/12/27 04:29:52;;;;;;;11.40;2.15;;;;;;;;;;4990575;28;20767;-69
2023/12/27 04:32:19;;;;;;;10.25;1.70;;;;;;;;;;4990079;28;20054;-69
2023/12/27 04:34:46;;;;;;;5.60;1.65;;;;;;;;;;4988451;28;20062;-69
2023/12/27 04:37:13;;;;;;;6.68;1.90;;;;;;;;;;4985012;28;20058;-69
2023/12/27 04:39:40;;;;;;;11.57;1.92;;;;;;;;;;4988918;28;20061;-69
2023/12/27 04:42:08;;;;;;;15.70;2.05;;;;;;;;;;4973627;28;20066;-69
2023/12/27 04:44:36;;;;;;;11.35;1.80;;;;;;;;;;4989719;28;20378;-69
2023/12/27 04:47:04;;;;;;;10.18;2.10;;;;;;;;;;4984288;28;20051;-69
2023/12/27 04:49:31;;;;;;;7.65;1.52;;;;;;;;;;4986173;28;20058;-69
2023/12/27 04:51:58;;;;;;;7.90;1.75;;;;;;;;;;4984650;28;20050;-69
2023/12/27 04:54:25;;;;;;;9.95;2.08;;;;;;;;;;4985722;28;20054;-69
2023/12/27 04:56:54;;;;;;;10.82;2.17;;;;;;;;;;4989494;28;20042;-69
2023/12/27 04:59:22;;;;;;;8.32;2.40;;;;;;;;;;4990860;28;20161;-69
2023/12/27 05:01:50;;;;;;;7.80;1.92;;;;;;;;;;4988449;28;20378;-69
2023/12/27 05:04:18;;;;;;;10.35;2.10;;;;;;;;;;4988759;28;20048;-69
2023/12/27 05:06:45;;;;;;;13.00;1.52;;;;;;;;;;4990803;28;20187;-69
2023/12/27 05:09:16;;;;;;;12.85;2.03;;;;;;;;;;4988498;28;20457;-69
2023/12/27 05:11:43;;;;;;;14.43;1.80;;;;;;;;;;4988736;28;20409;-69
2023/12/27 05:14:10;;;;;;;16.27;3.45;;;;;;;;;;4990219;28;20446;-69
2023/12/27 05:16:38;;;;;;;9.07;2.30;;;;;;;;;;4988041;28;20053;-69
2023/12/27 05:19:07;;;;;;;9.15;2.38;;;;;;;;;;4988991;28;20056;-69
2023/12/27 05:21:34;;;;;;;7.70;2.20;;;;;;;;;;4991258;28;20116;-69
2023/12/27 05:24:02;;;;;;;10.57;2.10;;;;;;;;;;4990589;28;20121;-69
2023/12/27 05:26:28;;;;;;;13.80;2.80;;;;;;;;;;4990727;28;20479;-69
2023/12/27 05:28:55;;;;;;;8.68;2.03;;;;;;;;;;4989467;28;20039;-69
2023/12/27 05:31:22;;;;;;;11.15;2.30;;;;;;;;;;4989206;28;20050;-69
2023/12/27 05:33:49;;;;;;;11.70;2.05;;;;;;;;;;4989740;28;20406;-69
2023/12/27 05:36:18;;;;;;;12.25;2.20;;;;;;;;;;4989100;28;20050;-69
2023/12/27 05:38:45;;;;;;;13.70;2.75;;;;;;;;;;4983558;28;20065;-69
2023/12/27 05:41:12;;;;;;;8.75;2.13;;;;;;;;;;4988476;28;20414;-69
2023/12/27 05:43:40;;;;;;;13.63;2.20;;;;;;;;;;4989994;28;20054;-69
2023/12/27 05:46:07;;;;;;;9.23;2.28;;;;;;;;;;4990356;28;20441;-70
2023/12/27 05:48:34;;;;;;;8.73;2.30;;;;;;;;;;4989598;28;20310;-69
2023/12/27 05:51:01;;;;;;;16.75;2.92;;;;;;;;;;4970628;28;20054;-69
2023/12/27 05:53:30;;;;;;;12.07;2.95;;;;;;;;;;4989172;28;20050;-69
2023/12/27 05:55:57;;;;;;;17.30;2.67;;;;;;;;;;4990081;28;20051;-69
2023/12/27 05:58:26;;;;;;;19.48;2.67;;;;;;;;;;4988716;28;20058;-69
2023/12/27 06:00:53;;;;;;;9.75;2.55;;;;;;;;;;4986650;28;20050;-69
2023/12/27 06:03:20;;;;;;;11.57;2.90;;;;;;;;;;4982080;28;20042;-68
2023/12/27 06:05:48;;;;;;;16.70;2.58;;;;;;;;;;4987916;28;20054;-68
2023/12/27 06:08:17;;;;;;;8.60;2.33;;;;;;;;;;4990181;28;20054;-68
2023/12/27 06:10:47;;;;;;;12.07;2.22;;;;;;;;;;4987243;28;20065;-67
2023/12/27 06:13:14;;;;;;;19.63;2.70;;;;;;;;;;4982137;28;20046;-67
2023/12/27 06:15:41;;;;;;;11.15;2.10;;;;;;;;;;4989157;28;20050;-67
2023/12/27 06:18:08;;;;;;;11.40;2.25;;;;;;;;;;4988806;28;20071;-68
2023/12/27 06:20:36;;;;;;;13.05;2.42;;;;;;;;;;4988713;28;20050;-68
2023/12/27 06:23:03;;;;;;;18.35;2.78;;;;;;;;;;4972181;28;20065;-68
2023/12/27 06:25:31;;;;;;;15.07;2.13;;;;;;;;;;4988142;28;20454;-68
2023/12/27 06:27:59;;;;;;;17.13;2.60;;;;;;;;;;4989109;28;20128;-67
2023/12/27 06:30:27;;;;;;;6.28;1.83;;;;;;;;;;4967248;28;20055;-67
2023/12/27 06:32:54;;;;;;;13.45;2.30;;;;;;;;;;4988330;28;20125;-68
2023/12/27 06:35:21;;;;;;;14.05;2.67;;;;;;;;;;4988314;28;20054;-67
2023/12/27 06:37:49;;;;;;;8.85;2.92;;;;;;;;;;4989841;28;20488;-67
2023/12/27 06:40:16;;;;;;;9.75;1.98;;;;;;;;;;4987446;28;20050;-68
2023/12/27 06:42:43;;;;;;;10.65;1.92;;;;;;;;;;4983452;28;20042;-68
2023/12/27 06:45:12;;;;;;;16.73;2.10;;;;;;;;;;4988316;28;20064;-67
2023/12/27 06:47:39;;;;;;;15.30;3.08;;;;;;;;;;4983322;28;20046;-67
2023/12/27 06:50:08;;;;;;;9.70;1.77;;;;;;;;;;4989566;28;20055;-68
2023/12/27 06:52:35;;;;;;;17.48;1.70;;;;;;;;;;4973999;28;20054;-68
2023/12/27 06:55:02;;;;;;;8.15;1.98;;;;;;;;;;4983415;28;20046;-68
2023/12/27 06:57:30;;;;;;;22.35;2.50;;;;;;;;;;4988772;28;20050;-68
2023/12/27 06:59:57;;;;;;;14.43;2.15;;;;;;;;;;4986961;28;20050;-67
2023/12/27 07:02:25;;;;;;;9.07;1.92;;;;;;;;;;4982409;28;20054;-67
2023/12/27 07:04:53;;;;;;;10.15;1.70;;;;;;;;;;4989049;28;20060;-67
2023/12/27 07:07:21;;;;;;;10.40;1.88;;;;;;;;;;4987911;28;20152;-67
2023/12/27 07:09:49;;;;;;;7.93;1.75;;;;;;;;;;4988536;28;20053;-67
2023/12/27 07:12:16;;;;;;;17.17;1.70;;;;;;;;;;4991405;28;20050;-68
2023/12/27 07:14:43;;;;;;;8.15;1.65;;;;;;;;;;4990868;28;20058;-69
2023/12/27 07:17:10;;;;;;;10.40;2.00;;;;;;;;;;4988216;28;20053;-69
2023/12/27 07:19:39;;;;;;;9.98;1.65;;;;;;;;;;4992132;28;20054;-69
2023/12/27 07:22:07;;;;;;;8.10;1.55;;;;;;;;;;4990129;28;20057;-69
2023/12/27 07:24:34;;;;;;;13.25;1.98;;;;;;;;;;4993671;28;20050;-69
2023/12/27 07:27:01;;;;;;;13.85;2.20;;;;;;;;;;4991640;28;20050;-69
2023/12/27 07:29:28;;;;;;;18.15;2.50;;;;;;;;;;4993937;28;20086;-69
2023/12/27 07:31:56;;;;;;;16.15;1.70;;;;;;;;;;4995272;28;20072;-69
2023/12/27 07:34:23;;;;;;;18.48;3.47;;;;;;;;;;4994698;28;20046;-69
2023/12/27 07:36:52;;;;;;;8.93;1.60;;;;;;;;;;4987071;28;20046;-69
2023/12/27 07:39:19;;;;;;;7.50;1.60;;;;;;;;;;4991795;28;20069;-69
2023/12/27 07:41:46;;;;;;;14.32;2.90;;;;;;;;;;4990116;28;20054;-69
2023/12/27 07:44:15;;;;;;;12.63;2.08;;;;;;;;;;4973945;28;20197;-69
2023/12/27 07:46:43;;;;;;;13.45;1.83;;;;;;;;;;4988410;28;20050;-69
2023/12/27 07:49:10;;;;;;;15.73;2.00;;;;;;;;;;4992370;28;20405;-69
2023/12/27 07:51:37;;;;;;;10.57;2.00;;;;;;;;;;4986279;28;20050;-69
2023/12/27 07:54:07;;;;;;;10.75;1.70;;;;;;;;;;4993233;28;20042;-69
2023/12/27 07:56:35;;;;;;;9.07;1.55;;;;;;;;;;4995748;28;20121;-69
2023/12/27 07:59:03;;;;;;;15.75;2.25;;;;;;;;;;4993620;28;20133;-69
2023/12/27 08:01:31;;;;;;;9.35;1.63;;;;;;;;;;4990670;28;20047;-69
2023/12/27 08:03:59;;;;;;;16.67;1.63;;;;;;;;;;4986282;28;20089;-69
2023/12/27 08:06:27;;;;;;;13.13;2.30;;;;;;;;;;4983929;28;20062;-69
2023/12/27 08:08:55;;;;;;;9.73;1.63;;;;;;;;;;4988258;28;20500;-69
2023/12/27 08:11:24;;;;;;;9.65;2.22;;;;;;;;;;4987809;28;20054;-69
2023/12/27 08:13:51;;;;;;;18.58;1.92;;;;;;;;;;4988721;28;20046;-69
2023/12/27 08:16:18;;;;;;;9.90;1.60;;;;;;;;;;4987766;28;20160;-69
2023/12/27 08:18:45;;;;;;;8.35;1.42;;;;;;;;;;4987836;28;20739;-69
2023/12/27 08:21:12;;;;;;;7.68;1.90;;;;;;;;;;4973028;28;20105;-69
2023/12/27 08:23:40;;;;;;;13.10;2.85;;;;;;;;;;4968477;28;20409;-69
2023/12/27 08:26:07;;;;;;;17.40;5.00;;;;;;;;;;4986876;28;20050;-69
2023/12/27 08:28:36;;;;;;;9.32;2.15;;;;;;;;;;4988754;28;20050;-69
2023/12/27 08:31:04;;;;;;;6.25;1.50;;;;;;;;;;4990012;28;20064;-69
2023/12/27 08:33:32;;;;;;;10.82;2.15;;;;;;;;;;4984619;28;20050;-69
2023/12/27 08:36:00;;;;;;;14.73;2.75;;;;;;;;;;4987318;28;20050;-69
2023/12/27 08:38:27;;;;;;;9.80;1.92;;;;;;;;;;4983960;28;20106;-69
2023/12/27 08:40:54;;;;;;;9.38;1.85;;;;;;;;;;4985573;28;20054;-69
2023/12/27 08:43:27;;;;;;;8.75;1.67;;;;;;;;;;4986526;28;20436;-69
2023/12/27 08:45:56;;;;;;;11.93;2.92;;;;;;;;;;4984290;28;20050;-69
2023/12/27 08:48:23;;;;;;;12.85;1.70;;;;;;;;;;4983705;28;20046;-69
2023/12/27 08:50:51;;;;;;;10.48;2.08;;;;;;;;;;4987092;28;20658;-69
2023/12/27 08:53:18;;;;;;;6.43;1.60;;;;;;;;;;4989075;28;20417;-69
2023/12/27 08:55:46;;;;;;;6.03;1.55;;;;;;;;;;4986877;28;20137;-69
2023/12/27 08:58:13;;;;;;;9.80;1.80;;;;;;;;;;4975021;28;20153;-69
2023/12/27 09:00:40;;;;;;;11.55;3.53;;;;;;;;;;4966975;28;20623;-69
2023/12/27 09:03:09;;;;;;;12.05;2.80;;;;;;;;;;4974881;28;20493;-69
2023/12/27 09:05:36;;;;;;;15.05;2.08;;;;;;;;;;4978744;28;20872;-69
2023/12/27 09:08:04;;;;;;;14.75;2.25;;;;;;;;;;4985645;28;20065;-69
2023/12/27 09:10:31;;;;;;;15.50;4.60;;;;;;;;;;4987537;28;20053;-69
2023/12/27 09:12:58;;;;;;;12.95;2.55;;;;;;;;;;4987429;28;20050;-69
2023/12/27 09:15:25;;;;;;;18.10;1.88;;;;;;;;;;4983555;28;20054;-69
2023/12/27 09:17:53;;;;;;;11.07;1.60;;;;;;;;;;4988451;28;20054;-69
2023/12/27 09:20:21;;;;;;;8.45;1.60;;;;;;;;;;4987293;28;20050;-69
2023/12/27 09:22:49;;;;;;;12.63;1.73;;;;;;;;;;4986490;28;20050;-69
2023/12/27 09:25:16;;;;;;;11.48;1.60;;;;;;;;;;4988137;28;20478;-69
2023/12/27 09:27:45;;;;;;;11.10;1.50;;;;;;;;;;4972286;28;20090;-68
2023/12/27 09:30:13;;;;;;;8.32;1.95;;;;;;;;;;4987688;28;20054;-69
2023/12/27 09:32:40;;;;;;;16.25;2.90;;;;;;;;;;4989670;28;20057;-65
2023/12/27 09:35:07;;;;;;;15.10;1.83;;;;;;;;;;4986899;28;20058;-66
2023/12/27 09:37:37;;;;;;;19.65;2.60;;;;;;;;;;4986045;28;20038;-65
2023/12/27 09:40:05;;;;;;;9.20;1.60;;;;;;;;;;4986024;28;20122;-65
2023/12/27 09:42:35;;;;;;;9.07;1.70;;;;;;;;;;4983896;28;20362;-66
2023/12/27 09:45:03;;;;;;;11.68;1.73;;;;;;;;;;4987636;28;20051;-66
2023/12/27 09:47:31;;;;;;;16.98;2.42;;;;;;;;;;4986160;28;20062;-65
2023/12/27 09:49:59;;;;;;;18.88;2.67;;;;;;;;;;4981135;28;20050;-65
2023/12/27 09:52:29;;;;;;;16.52;1.92;;;;;;;;;;4986389;28;20054;-66
2023/12/27 09:54:57;;;;;;;16.58;2.83;;;;;;;;;;4969070;28;20046;-65
2023/12/27 09:57:25;;;;;;;13.18;3.30;;;;;;;;;;4986753;28;20046;-65
2023/12/27 09:59:53;;;;;;;11.48;2.58;;;;;;;;;;4985881;28;20116;-66
2023/12/27 10:02:20;;;;;;;16.67;2.42;;;;;;;;;;4988434;28;20050;-66
2023/12/27 10:04:53;;;;;;;16.25;2.65;;;;;;;;;;4989724;28;20046;-65
2023/12/27 10:07:21;;;;;;;10.67;2.57;;;;;;;;;;4988537;28;20050;-66
2023/12/27 10:09:48;;;;;;;17.40;3.17;;;;;;;;;;4990173;28;20046;-67
2023/12/27 10:12:17;;;;;;;13.70;2.85;;;;;;;;;;4969696;28;20497;-65
2023/12/27 10:14:45;;;;;;;10.80;2.95;;;;;;;;;;4989382;28;20050;-65
2023/12/27 10:17:12;;;;;;;14.93;3.20;;;;;;;;;;4988226;28;20486;-67
2023/12/27 10:19:40;;;;;;;16.85;3.38;;;;;;;;;;4989680;28;20062;-65
2023/12/27 10:22:08;;;;;;;16.27;3.33;;;;;;;;;;4987497;28;20050;-66
2023/12/27 10:24:34;;;;;;;12.40;3.08;;;;;;;;;;4976241;28;20404;-66
2023/12/27 10:27:02;;;;;;;15.00;3.47;;;;;;;;;;4965810;28;20057;-65
2023/12/27 10:29:32;;;;;;;15.65;3.63;;;;;;;;;;4984342;28;20057;-65
2023/12/27 10:31:59;;;;;;;10.35;4.05;;;;;;;;;;4988998;28;20057;-65
2023/12/27 10:34:27;;;;;;;14.18;4.15;;;;;;;;;;4989622;28;20050;-64
2023/12/27 10:36:55;;;;;;;15.13;4.20;;;;;;;;;;4986365;28;20090;-66
2023/12/27 10:39:23;;;;;;;19.98;5.00;;;;;;;;;;4983733;28;20065;-66
2023/12/27 10:41:53;;;;;;;18.02;4.07;;;;;;;;;;4987574;28;20160;-65
2023/12/27 10:44:20;;;;;;;17.63;5.05;;;;;;;;;;4983512;28;20405;-66
2023/12/27 10:46:50;;;;;;;18.25;4.38;;;;;;;;;;4979842;28;20528;-66
2023/12/27 10:49:18;;;;;;;9.48;3.55;;;;;;;;;;4982434;28;20069;-65
2023/12/27 10:51:46;;;;;;;22.48;4.75;;;;;;;;;;4978151;28;20140;-66
2023/12/27 10:54:15;;;;;;;16.67;4.55;;;;;;;;;;4980208;28;20058;-65
2023/12/27 10:56:42;;;;;;;18.65;4.40;;;;;;;;;;4987388;28;20050;-66
2023/12/27 10:59:10;;;;;;;18.35;4.93;;;;;;;;;;4982676;28;20082;-66
2023/12/27 11:01:39;;;;;;;17.40;5.25;;;;;;;;;;4984827;28;20054;-67
2023/12/27 11:04:08;;;;;;;21.27;5.97;;;;;;;;;;4988041;28;20414;-66
2023/12/27 11:06:37;;;;;;;15.10;5.75;;;;;;;;;;4984480;28;20058;-65
2023/12/27 11:09:07;;;;;;;11.93;5.68;;;;;;;;;;4985546;28;20089;-66
2023/12/27 11:11:35;;;;;;;18.77;5.68;;;;;;;;;;4987438;28;20121;-66
2023/12/27 11:14:05;;;;;;;17.88;5.80;;;;;;;;;;4982465;28;20042;-67
2023/12/27 11:16:33;;;;;;;16.35;6.22;;;;;;;;;;4983235;28;20100;-66
2023/12/27 11:19:02;;;;;;;20.73;6.95;;;;;;;;;;4982994;28;20046;-65
2023/12/27 11:21:31;;;;;;;22.27;7.18;;;;;;;;;;4984079;28;20054;-66
2023/12/27 11:23:58;;;;;;;22.33;7.28;;;;;;;;;;4987981;28;20054;-65
2023/12/27 11:26:26;;;;;;;22.27;6.95;;;;;;;;;;4982033;28;20105;-66
2023/12/27 11:28:53;;;;;;;27.30;8.93;;;;;;;;;;4987148;28;20047;-65
2023/12/27 11:31:21;;;;;;;22.88;8.43;;;;;;;;;;4983228;28;20050;-67
2023/12/27 11:33:49;;;;;;;22.13;7.97;;;;;;;;;;4985725;28;20050;-66
2023/12/27 11:36:17;;;;;;;24.35;9.23;;;;;;;;;;4985774;28;20486;-65
2023/12/27 11:38:46;;;;;;;28.13;8.15;;;;;;;;;;4984011;28;20546;-66
2023/12/27 11:41:14;;;;;;;27.10;9.07;;;;;;;;;;4983891;28;20049;-66
2023/12/27 11:43:53;;;;;;;22.33;8.75;;;;;;;;;;4980121;28;20055;-66
2023/12/27 11:46:26;;;;;;;32.30;10.48;;;;;;;;;;4985078;28;20055;-66
2023/12/27 11:48:54;;;;;;;32.90;11.88;;;;;;;;;;4984938;28;20393;-66
2023/12/27 11:51:28;;;;;;;27.42;10.70;;;;;;;;;;4986095;28;20065;-66
2023/12/27 11:53:57;;;;;;;27.77;11.32;;;;;;;;;;4983437;28;20401;-66
2023/12/27 11:56:24;;;;;;;27.00;11.45;;;;;;;;;;4987051;28;20046;-67
2023/12/27 11:58:52;;;;;;;31.27;11.32;;;;;;;;;;4973587;28;20050;-65
2023/12/27 12:01:23;;;;;;;24.13;11.20;;;;;;;;;;4989929;28;20094;-65
2023/12/27 12:03:53;;;;;;;25.45;11.35;;;;;;;;;;4983591;28;20503;-67
2023/12/27 12:06:29;;;;;;;24.35;11.05;;;;;;;;;;4988669;28;20437;-66
2023/12/27 12:08:59;;;;;;;29.08;12.20;;;;;;;;;;4969476;28;20078;-66
2023/12/27 12:11:28;;;;;;;26.33;11.63;;;;;;;;;;4990651;28;20504;-66
2023/12/27 12:13:55;;;;;;;30.55;12.43;;;;;;;;;;4971612;28;20055;-65
2023/12/27 12:16:23;;;;;;;30.38;12.73;;;;;;;;;;4991370;28;20097;-65
2023/12/27 12:18:50;;;;;;;29.25;12.60;;;;;;;;;;4989818;28;20049;-66
2023/12/27 12:21:18;;;;;;;26.75;11.40;;;;;;;;;;4990717;28;20046;-65
2023/12/27 12:23:47;;;;;;;35.58;12.70;;;;;;;;;;4987340;28;20490;-67
2023/12/27 12:26:17;;;;;;;26.63;12.90;;;;;;;;;;4989593;28;20474;-65
2023/12/27 12:28:54;;;;;;;35.20;13.00;;;;;;;;;;4989188;28;20054;-67
2023/12/27 12:31:22;;;;;;;27.33;12.27;;;;;;;;;;4964927;28;20062;-66
2023/12/27 12:33:49;;;;;;;26.25;12.95;;;;;;;;;;4986512;28;20058;-65
2023/12/27 12:36:17;;;;;;;35.47;13.10;;;;;;;;;;4985325;28;20077;-66
2023/12/27 12:38:45;;;;;;;31.33;13.32;;;;;;;;;;4968057;28;20054;-66
2023/12/27 12:41:12;;;;;;;33.08;12.82;;;;;;;;;;4989100;28;20157;-67
2023/12/27 12:43:43;;;;;;;32.25;13.73;;;;;;;;;;4990464;28;20508;-65
2023/12/27 12:46:12;;;;;;;28.05;12.55;;;;;;;;;;4988169;28;20050;-67
2023/12/27 12:48:40;;;;;;;28.13;13.07;;;;;;;;;;4989016;28;20058;-66
2023/12/27 12:51:11;;;;;;;25.38;12.18;;;;;;;;;;4990132;28;20406;-65
2023/12/27 12:53:38;;;;;;;36.97;12.80;;;;;;;;;;4990567;28;20058;-66
2023/12/27 12:56:07;;;;;;;35.50;14.90;;;;;;;;;;4990543;28;20064;-66
2023/12/27 12:58:34;;;;;;;37.70;15.75;;;;;;;;;;4988269;28;20537;-66
2023/12/27 13:01:03;;;;;;;35.95;16.50;;;;;;;;;;4969060;28;20069;-66
2023/12/27 13:03:32;;;;;;;38.55;16.70;;;;;;;;;;4991035;28;20481;-67
2023/12/27 13:06:01;;;;;;;43.40;16.05;;;;;;;;;;4983789;28;20046;-67
2023/12/27 13:08:28;;;;;;;33.88;15.30;;;;;;;;;;4987843;28;20054;-67
2023/12/27 13:10:56;;;;;;;43.78;18.30;;;;;;;;;;4989630;28;20061;-67
2023/12/27 13:13:24;;;;;;;47.50;19.33;;;;;;;;;;4972182;28;20058;-69
2023/12/27 13:15:51;;;;;;;43.17;17.75;;;;;;;;;;4982759;28;20516;-69
2023/12/27 13:18:20;;;;;;;41.25;18.83;;;;;;;;;;4989152;28;20498;-69
2023/12/27 13:20:47;;;;;;;44.83;18.88;;;;;;;;;;4972642;28;20519;-69
2023/12/27 13:23:15;;;;;;;41.83;18.45;;;;;;;;;;4988938;28;20054;-69
2023/12/27 13:25:42;;;;;;;56.13;20.60;;;;;;;;;;4986778;28;20049;-69
2023/12/27 13:28:09;;;;;;;49.28;18.70;;;;;;;;;;4986410;28;20050;-68
2023/12/27 13:30:37;;;;;;;47.53;19.08;;;;;;;;;;4989929;28;20061;-69
2023/12/27 13:33:05;;;;;;;43.38;18.73;;;;;;;;;;4986492;28;20042;-69
2023/12/27 13:35:33;;;;;;;41.97;19.05;;;;;;;;;;4980144;28;20046;-70
2023/12/27 13:38:01;;;;;;;56.13;19.13;;;;;;;;;;4983477;28;21449;-72
2023/12/27 13:40:29;;;;;;;39.88;19.42;;;;;;;;;;4983880;28;20599;-73
2023/12/27 13:42:57;;;;;;;49.92;19.00;;;;;;;;;;4985374;28;20054;-71
2023/12/27 13:45:24;;;;;;;43.58;19.33;;;;;;;;;;4988710;28;20050;-72
2023/12/27 13:47:51;;;;;;;39.13;18.73;;;;;;;;;;4984955;28;20046;-73
2023/12/27 13:50:18;;;;;;;47.50;20.48;;;;;;;;;;4988473;28;20054;-72
2023/12/27 13:52:47;;;;;;;46.40;20.77;;;;;;;;;;4984322;28;20058;-72
2023/12/27 13:55:20;;;;;;;58.85;23.55;;;;;;;;;;4983299;28;20050;-72
2023/12/27 13:57:49;;;;;;;55.47;22.83;;;;;;;;;;4983796;28;20153;-72
2023/12/27 14:00:16;;;;;;;59.97;21.73;;;;;;;;;;4985250;28;20061;-72
2023/12/27 14:02:44;;;;;;;55.05;21.80;;;;;;;;;;4984115;28;20486;-71
2023/12/27 14:05:11;;;;;;;50.63;22.33;;;;;;;;;;4981575;28;20054;-71
2023/12/27 14:07:39;;;;;;;51.05;22.63;;;;;;;;;;4983914;28;20524;-71
2023/12/27 14:10:08;;;;;;;52.25;22.63;;;;;;;;;;4984142;28;20053;-71
2023/12/27 14:12:41;;;;;;;52.65;22.50;;;;;;;;;;4984942;28;20520;-71
2023/12/27 14:15:09;;;;;;;51.13;21.92;;;;;;;;;;4983971;28;20074;-71
2023/12/27 14:17:40;;;;;;;50.15;21.48;;;;;;;;;;4985617;28;20058;-72
2023/12/27 14:20:09;;;;;;;46.97;21.65;;;;;;;;;;4967496;28;20042;-72
2023/12/27 14:22:37;;;;;;;51.35;21.33;;;;;;;;;;4986075;28;20118;-67
2023/12/27 14:25:05;;;;;;;47.63;21.58;;;;;;;;;;4983995;28;20124;-67
2023/12/27 14:27:34;;;;;;;57.55;20.60;;;;;;;;;;4983015;28;20489;-67
2023/12/27 14:30:01;;;;;;;50.03;21.08;;;;;;;;;;4973391;28;20062;-68
2023/12/27 14:32:28;;;;;;;50.10;20.55;;;;;;;;;;4972483;28;20053;-66
2023/12/27 14:34:55;;;;;;;48.25;19.77;;;;;;;;;;4974876;28;20047;-67
2023/12/27 14:37:23;;;;;;;42.50;19.15;;;;;;;;;;4977673;28;20062;-66